Wetterdaten: aktuell Dienstag, 04.10.2022 21:28
Datum Zeit Temp. A. Feuchte A. Luftdruck Regen Wind Richtung Richtung Taupunkt Windchill
04.10.2022 21:28 10,9 C 84 % 1019,9 hPa 0,0 l/m 0,0 km/h (0 Bft) O-NO 67 8,3 C 10,9 C
04.10.2022 20:58 11,5 C 82 % 1019,9 hPa 0,0 l/m 0,0 km/h (0 Bft) S 180 8,5 C 11,5 C
04.10.2022 20:28 12,1 C 80 % 1019,7 hPa 0,0 l/m 0,0 km/h (0 Bft) O-NO 67 8,8 C 12,1 C
04.10.2022 19:58 12,9 C 77 % 1019,7 hPa 0,0 l/m 0,0 km/h (0 Bft) O-NO 67 9,0 C 12,9 C
04.10.2022 19:28 14,4 C 73 % 1019,6 hPa 0,0 l/m 0,0 km/h (0 Bft) S 180 9,6 C 14,4 C
04.10.2022 18:58 15,8 C 69 % 1019,4 hPa 0,0 l/m 0,0 km/h (0 Bft) S-SO 157 10,1 C 15,8 C
04.10.2022 18:28 16,9 C 66 % 1019,3 hPa 0,0 l/m 0,0 km/h (0 Bft) S 180 10,5 C 16,9 C
04.10.2022 17:58 17,8 C 65 % 1019,1 hPa 0,0 l/m 1,4 km/h (1 Bft) O-SO 112 11,1 C 17,8 C
04.10.2022 17:28 17,9 C 64 % 1019,3 hPa 0,0 l/m 3,2 km/h (1 Bft) O 90 11,0 C 17,9 C
04.10.2022 16:58 18,1 C 63 % 1019,4 hPa 0,0 l/m 3,2 km/h (1 Bft) S-SO 157 10,9 C 18,1 C
04.10.2022 16:28 18,3 C 62 % 1019,7 hPa 0,0 l/m 0,0 km/h (0 Bft) S-SO 157 10,9 C 18,3 C
04.10.2022 15:58 18,5 C 61 % 1019,8 hPa 0,0 l/m 0,0 km/h (0 Bft) SO 135 10,8 C 18,5 C
04.10.2022 15:28 19,2 C 58 % 1020,1 hPa 0,0 l/m 0,0 km/h (0 Bft) S-SO 157 10,7 C 19,2 C
04.10.2022 14:58 20,1 C 59 % 1020,2 hPa 0,0 l/m 0,0 km/h (0 Bft) S-SO 157 11,8 C 20,1 C
04.10.2022 14:28 18,7 C 62 % 1020,6 hPa 0,0 l/m 0,0 km/h (0 Bft) O-SO 112 11,3 C 18,7 C
04.10.2022 13:58 18,9 C 63 % 1021,0 hPa 0,0 l/m 2,9 km/h (1 Bft) S-SO 157 11,7 C 18,9 C
04.10.2022 13:28 18,2 C 68 % 1021,2 hPa 0,0 l/m 0,0 km/h (0 Bft) O-SO 112 12,2 C 18,2 C
04.10.2022 12:58 17,1 C 72 % 1021,5 hPa 0,0 l/m 0,0 km/h (0 Bft) S 180 12,0 C 17,1 C
04.10.2022 12:28 14,9 C 79 % 1021,5 hPa 0,0 l/m 9,0 km/h (2 Bft) S 180 11,3 C 13,5 C
04.10.2022 11:58 14,1 C 85 % 1021,7 hPa 0,0 l/m 0,0 km/h (0 Bft) O 90 11,6 C 14,1 C
04.10.2022 11:28 11,8 C 91 % 1021,7 hPa 0,0 l/m 0,0 km/h (0 Bft) SO 135 10,4 C 11,8 C
04.10.2022 10:58 10,1 C 91 % 1021,7 hPa 0,0 l/m 0,0 km/h (0 Bft) O 90 8,7 C 10,1 C
04.10.2022 10:28 8,6 C 91 % 1022,0 hPa 0,0 l/m 0,0 km/h (0 Bft) S-SO 157 7,2 C 8,6 C
04.10.2022 09:58 7,6 C 91 % 1021,8 hPa 0,0 l/m 0,0 km/h (0 Bft) SO 135 6,2 C 7,6 C
04.10.2022 09:28 6,7 C 92 % 1022,0 hPa 0,0 l/m 0,0 km/h (0 Bft) S-SO 157 5,5 C 6,7 C
04.10.2022 08:58 6,2 C 91 % 1022,0 hPa 0,0 l/m 0,0 km/h (0 Bft) SO 135 4,8 C 6,2 C
04.10.2022 08:28 5,9 C 91 % 1021,9 hPa 0,0 l/m 0,0 km/h (0 Bft) SO 135 4,5 C 5,9 C
04.10.2022 07:58 5,9 C 91 % 1022,1 hPa 0,0 l/m 0,0 km/h (0 Bft) SO 135 4,5 C 5,9 C
04.10.2022 07:28 6,1 C 91 % 1022,3 hPa 0,0 l/m 0,0 km/h (0 Bft) SO 135 4,7 C 6,1 C
04.10.2022 06:58 6,1 C 91 % 1022,2 hPa 0,0 l/m 0,0 km/h (0 Bft) S-SO 157 4,7 C 6,1 C
04.10.2022 06:28 6,2 C 91 % 1022,1 hPa 0,0 l/m 2,2 km/h (1 Bft) SO 135 4,8 C 6,2 C
04.10.2022 05:58 5,8 C 91 % 1022,4 hPa 0,0 l/m 0,0 km/h (0 Bft) SO 135 4,4 C 5,8 C
04.10.2022 05:28 5,8 C 91 % 1022,5 hPa 0,0 l/m 0,0 km/h (0 Bft) SO 135 4,4 C 5,8 C
04.10.2022 04:58 5,9 C 91 % 1022,5 hPa 0,0 l/m 0,0 km/h (0 Bft) SO 135 4,5 C 5,9 C
04.10.2022 04:28 6,0 C 91 % 1022,8 hPa 0,0 l/m 0,0 km/h (0 Bft) SO 135 4,6 C 6,0 C
04.10.2022 03:58 6,0 C 91 % 1023,1 hPa 0,0 l/m 0,0 km/h (0 Bft) SO 135 4,6 C 6,0 C
04.10.2022 03:28 6,1 C 91 % 1023,3 hPa 0,0 l/m 0,0 km/h (0 Bft) SO 135 4,7 C 6,1 C
04.10.2022 02:58 6,3 C 91 % 1023,4 hPa 0,0 l/m 0,0 km/h (0 Bft) O-SO 112 4,9 C 6,3 C
04.10.2022 02:28 6,3 C 91 % 1023,9 hPa 0,0 l/m 0,0 km/h (0 Bft) O 90 4,9 C 6,3 C
04.10.2022 01:58 6,4 C 91 % 1023,8 hPa 0,0 l/m 0,0 km/h (0 Bft) S-SO 157 5,0 C 6,4 C
04.10.2022 01:28 6,6 C 91 % 1024,1 hPa 0,0 l/m 0,0 km/h (0 Bft) SO 135 5,2 C 6,6 C
04.10.2022 00:58 6,7 C 91 % 1023,9 hPa 0,0 l/m 0,0 km/h (0 Bft) SO 135 5,3 C 6,7 C
04.10.2022 00:28 6,8 C 90 % 1024,4 hPa 0,0 l/m 0,0 km/h (0 Bft) S-SO 157 5,3 C 6,8 C
03.10.2022 23:58 6,8 C 90 % 1024,6 hPa 0,0 l/m 0,0 km/h (0 Bft) S 180 5,3 C 6,8 C
03.10.2022 23:28 7,1 C 89 % 1024,8 hPa 0,0 l/m 0,0 km/h (0 Bft) S 180 5,4 C 7,1 C
03.10.2022 22:58 7,4 C 89 % 1024,7 hPa 0,0 l/m 0,0 km/h (0 Bft) O-SO 112 5,7 C 7,4 C
03.10.2022 22:28 7,8 C 88 % 1024,9 hPa 0,0 l/m 0,0 km/h (0 Bft) O-SO 112 5,9 C 7,8 C
_ Min-Zeit 05:28 15:28 17:58 - 22:28 - - 05:28 05:28
Minimum _ 5,8 C 58 % 1019,1 hPa - 0,0 km/h (0 Bft) - - 4,4 C 5,8 C
_ Max-Zeit 14:58 09:28 22:28 22:28 12:28 - - 13:28 14:58
Maximum _ 20,1 C 92 % 1024,9 hPa 0,0 l/m 9,0 km/h
S (2 Bft)
- - 12,2 C 20,1 C
Durchschnitt _ 10,7 C 82 % 1022,0 hPa #0,0 l/m 0,4 km/h (0 Bft) S-SO - 7,5 C 10,7 C